Time;durP1;ratioP1;P1;durP2;ratioP2;P2;SDS_P1;SDS_P2;PMS_P1;PMS_P2;Temp;Humidity;BMP_temperature;BMP_pressure;BME280_temperature;BME280_humidity;BME280_pressure;Samples;Min_cycle;Max_cycle;Signal;HPM_P1;HPM_P2
2023/12/28 00:00:43;;;;;;;2.03;0.90;;;-2.00;99.90;;;;;;5032078;28;20261;-87
2023/12/28 00:03:11;;;;;;;2.53;1.10;;;-2.00;99.90;;;;;;5031983;28;20185;-88
2023/12/28 00:05:39;;;;;;;3.25;1.10;;;-1.90;99.90;;;;;;5032635;28;20193;-87
2023/12/28 00:08:06;;;;;;;3.25;1.33;;;-1.90;99.90;;;;;;5015919;28;20583;-87
2023/12/28 00:10:34;;;;;;;1.90;1.00;;;-1.90;99.90;;;;;;5032300;28;20532;-86
2023/12/28 00:13:01;;;;;;;3.13;1.30;;;-1.90;99.90;;;;;;5031374;28;20222;-87
2023/12/28 00:15:29;;;;;;;2.67;1.45;;;-2.00;99.90;;;;;;5032104;28;20190;-88
2023/12/28 00:17:56;;;;;;;1.25;0.88;;;-1.90;99.90;;;;;;5043252;28;20198;-87
2023/12/28 00:20:24;;;;;;;2.63;1.13;;;-1.90;99.90;;;;;;5047798;28;20190;-87
2023/12/28 00:22:52;;;;;;;2.50;1.38;;;-2.00;99.90;;;;;;5049049;28;20189;-86
2023/12/28 00:25:19;;;;;;;1.63;0.85;;;-1.90;99.90;;;;;;5048080;28;20187;-86
2023/12/28 00:27:47;;;;;;;2.80;1.00;;;-2.00;99.90;;;;;;5033542;28;20182;-85
2023/12/28 00:30:16;;;;;;;3.03;0.95;;;-2.00;99.90;;;;;;5048298;28;20670;-88
2023/12/28 00:32:45;;;;;;;3.40;0.98;;;-1.90;99.90;;;;;;5031659;28;20560;-86
2023/12/28 00:35:13;;;;;;;2.60;1.23;;;-1.90;99.90;;;;;;5036685;28;20188;-86
2023/12/28 00:37:41;;;;;;;2.63;1.10;;;-1.90;99.90;;;;;;5041253;28;20217;-87
2023/12/28 00:40:09;;;;;;;2.25;1.05;;;-1.90;99.90;;;;;;5032491;28;20190;-86
2023/12/28 00:42:36;;;;;;;1.35;0.80;;;-1.90;99.90;;;;;;5032372;28;20264;-88
2023/12/28 00:45:04;;;;;;;4.13;0.65;;;-1.90;99.90;;;;;;5032784;28;20190;-86
2023/12/28 00:47:33;;;;;;;2.53;0.90;;;-1.80;99.90;;;;;;5039593;28;20197;-87
2023/12/28 00:50:01;;;;;;;1.75;0.90;;;-1.80;99.90;;;;;;5029739;28;20296;-86
2023/12/28 00:52:28;;;;;;;2.08;0.80;;;-1.80;99.90;;;;;;5050993;28;20228;-86
2023/12/28 00:54:56;;;;;;;2.75;1.10;;;-1.80;99.90;;;;;;5052020;28;20288;-87
2023/12/28 00:57:23;;;;;;;3.30;0.90;;;-1.80;99.90;;;;;;5051206;28;20209;-86
2023/12/28 00:59:50;;;;;;;3.33;0.98;;;-1.80;99.90;;;;;;5046191;28;20248;-86
2023/12/28 01:02:18;;;;;;;1.98;0.80;;;-1.80;99.90;;;;;;5030747;28;20182;-86
2023/12/28 01:04:45;;;;;;;3.67;0.80;;;-1.80;99.90;;;;;;5014599;28;20291;-86
2023/12/28 01:07:13;;;;;;;1.25;0.70;;;-1.70;99.90;;;;;;5033897;28;20189;-88
2023/12/28 01:09:40;;;;;;;3.13;1.00;;;-1.70;99.90;;;;;;5050367;28;20197;-87
2023/12/28 01:12:08;;;;;;;2.28;0.80;;;-1.70;99.90;;;;;;5050609;28;20229;-87
2023/12/28 01:14:36;;;;;;;2.45;0.85;;;-1.70;99.90;;;;;;5043388;28;20221;-87
2023/12/28 01:17:04;;;;;;;1.23;0.73;;;-1.70;99.90;;;;;;5033515;28;20795;-86
2023/12/28 01:19:31;;;;;;;2.20;0.60;;;-1.70;99.90;;;;;;5033296;28;20669;-87
2023/12/28 01:21:58;;;;;;;2.67;0.60;;;-1.70;99.90;;;;;;5042566;28;20254;-86
2023/12/28 01:24:26;;;;;;;1.63;0.52;;;-1.70;99.90;;;;;;5047761;28;20285;-87
2023/12/28 01:26:54;;;;;;;1.60;0.70;;;-1.70;99.90;;;;;;5043483;28;20193;-88
2023/12/28 01:29:22;;;;;;;1.70;0.65;;;-1.70;99.90;;;;;;5046556;28;20190;-87
2023/12/28 01:31:49;;;;;;;1.85;0.60;;;-1.70;99.90;;;;;;5049961;28;20208;-87
2023/12/28 01:34:17;;;;;;;1.63;0.82;;;-1.70;99.90;;;;;;5062221;28;20201;-86
2023/12/28 01:36:45;;;;;;;4.63;0.75;;;-1.80;99.90;;;;;;5049786;28;20227;-88
2023/12/28 01:39:12;;;;;;;2.58;0.80;;;-1.80;99.90;;;;;;5039160;28;20190;-87
2023/12/28 01:41:40;;;;;;;2.38;0.68;;;-1.80;99.90;;;;;;5047023;28;20192;-86
2023/12/28 01:44:07;;;;;;;6.13;0.80;;;-1.80;99.90;;;;;;5047216;28;20594;-86
2023/12/28 01:46:35;;;;;;;1.95;0.77;;;-1.70;99.90;;;;;;5046787;28;20205;-88
2023/12/28 01:49:03;;;;;;;1.23;0.63;;;-1.70;99.90;;;;;;5045019;28;20204;-88
2023/12/28 01:51:32;;;;;;;3.22;0.93;;;-1.70;99.90;;;;;;5050568;28;20246;-86
2023/12/28 01:54:00;;;;;;;3.17;0.70;;;-1.70;99.90;;;;;;5050441;28;20200;-88
2023/12/28 01:56:27;;;;;;;1.00;0.45;;;-1.60;99.90;;;;;;5050687;28;20706;-87
2023/12/28 01:58:55;;;;;;;2.03;0.60;;;-1.70;99.90;;;;;;5050212;28;20189;-87
2023/12/28 02:01:22;;;;;;;1.80;0.60;;;-1.70;99.90;;;;;;5050848;28;20192;-88
2023/12/28 02:03:50;;;;;;;1.15;0.60;;;-1.70;99.90;;;;;;5066762;28;20193;-87
2023/12/28 02:06:19;;;;;;;1.70;0.52;;;-1.70;99.90;;;;;;5050702;28;20204;-87
2023/12/28 02:08:46;;;;;;;1.83;0.88;;;-1.60;99.90;;;;;;5049261;28;20193;-87
2023/12/28 02:11:14;;;;;;;3.22;0.80;;;-1.60;99.90;;;;;;5066122;28;20285;-87
2023/12/28 02:13:42;;;;;;;1.35;0.60;;;-1.60;99.90;;;;;;5050461;28;20292;-87
2023/12/28 02:16:20;;;;;;;2.75;0.68;;;-1.60;99.90;;;;;;5049289;28;20213;-86
2023/12/28 02:18:51;;;;;;;1.02;0.68;;;-1.60;99.90;;;;;;5049709;28;20272;-87
2023/12/28 02:21:20;;;;;;;1.25;0.60;;;-1.60;99.90;;;;;;5049429;28;20196;-87
2023/12/28 02:23:49;;;;;;;2.58;0.70;;;-1.60;99.90;;;;;;5049419;28;20225;-87
2023/12/28 02:26:17;;;;;;;1.15;0.70;;;-1.60;99.90;;;;;;5049024;28;20528;-86
2023/12/28 02:28:46;;;;;;;0.93;0.50;;;-1.60;99.90;;;;;;5042314;28;20202;-87
2023/12/28 02:31:28;;;;;;;1.52;0.80;;;-1.60;99.90;;;;;;5030025;28;20668;-86
2023/12/28 02:34:05;;;;;;;2.88;0.70;;;-1.60;99.90;;;;;;5029122;28;20198;-87
2023/12/28 02:36:36;;;;;;;2.05;0.63;;;-1.60;99.90;;;;;;5030759;28;20552;-87
2023/12/28 02:39:05;;;;;;;1.73;0.75;;;-1.60;99.90;;;;;;5032060;28;20228;-86
2023/12/28 02:41:34;;;;;;;1.00;0.65;;;-1.60;99.90;;;;;;5029976;28;20240;-88
2023/12/28 02:44:01;;;;;;;1.92;0.57;;;-1.60;99.90;;;;;;5029296;28;20186;-87
2023/12/28 02:46:29;;;;;;;5.60;0.73;;;-1.60;99.90;;;;;;5063547;28;20284;-86
2023/12/28 02:48:59;;;;;;;1.73;0.70;;;-1.60;99.90;;;;;;5049324;28;20319;-86
2023/12/28 02:51:26;;;;;;;2.63;0.75;;;-1.60;99.90;;;;;;5050488;28;20227;-86
2023/12/28 02:53:54;;;;;;;1.40;0.70;;;-1.60;99.90;;;;;;5044993;28;20197;-88
2023/12/28 02:56:22;;;;;;;3.08;0.70;;;-1.60;99.90;;;;;;5045259;28;20241;-87
2023/12/28 02:58:49;;;;;;;1.48;0.50;;;-1.70;99.90;;;;;;5030710;28;20190;-87
2023/12/28 03:01:17;;;;;;;1.42;0.60;;;-1.70;99.90;;;;;;5049523;28;20244;-88
2023/12/28 03:03:44;;;;;;;5.82;0.73;;;-1.70;99.90;;;;;;5049639;28;20277;-88
2023/12/28 03:06:12;;;;;;;2.58;0.80;;;-1.70;99.90;;;;;;5016108;28;20194;-87
2023/12/28 03:08:39;;;;;;;2.63;0.80;;;-1.60;99.90;;;;;;5033907;28;20233;-87
2023/12/28 03:11:07;;;;;;;5.97;0.85;;;-1.60;99.90;;;;;;5048552;28;20794;-87
2023/12/28 03:13:35;;;;;;;2.85;0.70;;;-1.60;99.90;;;;;;5033100;28;20190;-87
2023/12/28 03:16:02;;;;;;;2.53;0.80;;;-1.70;99.90;;;;;;5032933;28;20641;-86
2023/12/28 03:18:30;;;;;;;3.15;0.70;;;-1.60;99.90;;;;;;5048909;28;20271;-86
2023/12/28 03:20:57;;;;;;;2.95;0.90;;;-1.70;99.90;;;;;;5049513;28;20264;-89
2023/12/28 03:23:25;;;;;;;1.77;0.85;;;-1.60;99.90;;;;;;5048816;28;20194;-87
2023/12/28 03:25:52;;;;;;;2.63;0.85;;;-1.60;99.90;;;;;;5015622;28;20281;-86
2023/12/28 03:28:20;;;;;;;3.15;0.75;;;-1.60;99.90;;;;;;5032600;28;20699;-86
2023/12/28 03:30:47;;;;;;;5.40;1.35;;;-1.60;99.90;;;;;;5016260;28;20246;-87
2023/12/28 03:33:15;;;;;;;2.95;1.08;;;-1.60;99.90;;;;;;5032606;28;20283;-86
2023/12/28 03:35:42;;;;;;;5.18;1.30;;;-1.60;99.90;;;;;;5015764;28;20224;-87
2023/12/28 03:38:10;;;;;;;5.45;1.50;;;-1.60;99.90;;;;;;5048301;28;20287;-86
2023/12/28 03:40:37;;;;;;;5.65;1.40;;;-1.60;99.90;;;;;;5033350;28;20201;-87
2023/12/28 03:43:05;;;;;;;8.50;1.60;;;-1.60;99.90;;;;;;5048682;28;20222;-87
2023/12/28 03:45:32;;;;;;;2.60;1.23;;;-1.60;99.90;;;;;;5032428;28;20216;-86
2023/12/28 03:48:00;;;;;;;3.67;1.30;;;-1.50;99.90;;;;;;5015688;28;20224;-88
2023/12/28 03:50:28;;;;;;;4.45;1.70;;;-1.50;99.90;;;;;;5016173;28;20671;-87
2023/12/28 03:52:55;;;;;;;4.75;1.42;;;-1.50;99.90;;;;;;5032332;28;20237;-87
2023/12/28 03:55:23;;;;;;;4.85;1.55;;;-1.50;99.90;;;;;;5032807;28;20268;-87
2023/12/28 03:57:51;;;;;;;5.32;1.60;;;-1.50;99.90;;;;;;5031782;28;20198;-86
2023/12/28 04:00:18;;;;;;;4.85;1.55;;;-1.60;99.90;;;;;;5015939;28;20186;-87
2023/12/28 04:02:46;;;;;;;9.75;1.90;;;-1.60;99.90;;;;;;5049189;28;20289;-86
2023/12/28 04:05:16;;;;;;;8.10;1.90;;;-1.60;99.90;;;;;;5031982;28;20252;-87
2023/12/28 04:07:43;;;;;;;4.60;1.70;;;-1.60;99.90;;;;;;5032702;28;20204;-86
2023/12/28 04:10:11;;;;;;;5.45;1.60;;;-1.60;99.90;;;;;;5014271;28;20190;-86
2023/12/28 04:12:39;;;;;;;3.55;1.38;;;-1.60;99.90;;;;;;5031599;28;20689;-87
2023/12/28 04:15:06;;;;;;;8.77;1.73;;;-1.60;99.90;;;;;;5048588;28;20885;-87
2023/12/28 04:17:34;;;;;;;7.18;1.80;;;-1.70;99.90;;;;;;5015288;28;20210;-86
2023/12/28 04:20:01;;;;;;;5.85;1.33;;;-1.70;99.90;;;;;;5049246;28;20244;-89
2023/12/28 04:22:29;;;;;;;9.45;2.35;;;-1.60;99.90;;;;;;5031740;28;20605;-87
2023/12/28 04:24:56;;;;;;;6.57;1.52;;;-1.70;99.90;;;;;;5033003;28;20649;-87
2023/12/28 04:27:24;;;;;;;8.57;1.38;;;-1.70;99.90;;;;;;5031105;28;20193;-87
2023/12/28 04:29:51;;;;;;;8.23;1.70;;;-1.70;99.90;;;;;;5015008;28;20217;-87
2023/12/28 04:32:19;;;;;;;8.05;1.52;;;-1.70;99.90;;;;;;5046430;28;20205;-86
2023/12/28 04:34:46;;;;;;;8.73;1.83;;;-1.70;99.90;;;;;;5051626;28;20246;-85
2023/12/28 04:37:14;;;;;;;7.93;1.63;;;-1.70;99.90;;;;;;5051965;28;20196;-88
2023/12/28 04:39:41;;;;;;;4.72;1.83;;;-1.70;99.90;;;;;;5034148;28;20189;-86
2023/12/28 04:42:09;;;;;;;6.78;1.60;;;-1.80;99.90;;;;;;5051318;28;20198;-87
2023/12/28 04:44:39;;;;;;;9.32;2.00;;;-1.80;99.90;;;;;;5050439;28;20666;-87
2023/12/28 04:47:07;;;;;;;5.30;1.73;;;-1.80;99.90;;;;;;5050582;28;20670;-86
2023/12/28 04:49:35;;;;;;;4.65;1.63;;;-1.80;99.90;;;;;;5034331;28;20288;-86
2023/12/28 04:52:04;;;;;;;5.05;1.65;;;-1.80;99.90;;;;;;5051325;28;20227;-86
2023/12/28 04:54:33;;;;;;;6.57;1.30;;;-1.80;99.90;;;;;;5050023;28;20279;-87
2023/12/28 04:57:00;;;;;;;7.85;1.63;;;-1.80;99.90;;;;;;5049830;28;20310;-87
2023/12/28 04:59:28;;;;;;;6.60;1.45;;;-1.80;99.90;;;;;;5034151;28;20195;-87
2023/12/28 05:01:56;;;;;;;4.80;1.70;;;-1.90;99.90;;;;;;5051168;28;20192;-86
2023/12/28 05:04:23;;;;;;;5.20;1.85;;;-1.90;99.90;;;;;;5051287;28;20186;-88
2023/12/28 05:06:51;;;;;;;5.75;1.63;;;-1.90;99.90;;;;;;5050307;28;20211;-87
2023/12/28 05:09:18;;;;;;;6.25;1.95;;;-1.90;99.90;;;;;;5050066;28;20197;-86
2023/12/28 05:11:46;;;;;;;7.50;1.80;;;-2.00;99.90;;;;;;5050425;28;20699;-87
2023/12/28 05:14:14;;;;;;;9.13;2.00;;;-2.00;99.90;;;;;;5049639;28;20209;-86
2023/12/28 05:16:42;;;;;;;13.32;2.28;;;-2.00;99.90;;;;;;5041658;28;20598;-85
2023/12/28 05:19:09;;;;;;;6.72;1.67;;;-2.00;99.90;;;;;;5029916;28;20981;-87
2023/12/28 05:21:37;;;;;;;5.00;1.58;;;-2.00;99.90;;;;;;5013726;28;20828;-87
2023/12/28 05:24:05;;;;;;;6.70;1.80;;;-2.10;99.90;;;;;;5030145;28;20190;-87
2023/12/28 05:26:33;;;;;;;10.00;1.85;;;-2.00;99.90;;;;;;5030126;28;20267;-86
2023/12/28 05:29:00;;;;;;;9.80;1.48;;;-2.00;99.90;;;;;;5030507;28;20186;-86
2023/12/28 05:31:28;;;;;;;3.33;1.60;;;-2.10;99.90;;;;;;5038638;28;20202;-87
2023/12/28 05:33:58;;;;;;;9.65;2.00;;;-2.10;99.90;;;;;;5039930;28;20235;-86
2023/12/28 05:36:25;;;;;;;4.95;1.52;;;-2.10;99.90;;;;;;5049617;28;20247;-87
2023/12/28 05:38:53;;;;;;;8.50;1.50;;;-2.10;99.90;;;;;;5051745;28;20212;-86
2023/12/28 05:41:21;;;;;;;10.55;1.60;;;-2.10;99.90;;;;;;5046159;28;20190;-87
2023/12/28 05:43:48;;;;;;;12.57;1.92;;;-2.00;99.90;;;;;;5013335;28;20190;-86
2023/12/28 05:46:15;;;;;;;9.27;1.65;;;-2.10;99.90;;;;;;5046243;28;20189;-85
2023/12/28 05:48:43;;;;;;;6.63;1.65;;;-2.20;99.90;;;;;;5043739;28;20251;-86
2023/12/28 05:51:11;;;;;;;7.05;1.85;;;-2.20;99.90;;;;;;5046352;28;20225;-86
2023/12/28 05:53:38;;;;;;;5.78;1.63;;;-2.20;99.90;;;;;;5046118;28;20192;-87
2023/12/28 05:56:06;;;;;;;8.43;1.25;;;-2.20;99.90;;;;;;5029559;28;20232;-86
2023/12/28 05:58:33;;;;;;;8.07;1.35;;;-2.10;99.90;;;;;;5045809;28;20268;-87
2023/12/28 06:01:01;;;;;;;5.55;1.60;;;-2.10;99.90;;;;;;5031041;28;20190;-86
2023/12/28 06:03:30;;;;;;;10.35;1.73;;;-2.10;99.90;;;;;;5028632;28;20644;-86
2023/12/28 06:05:57;;;;;;;7.85;1.65;;;-2.00;99.90;;;;;;5012366;28;20178;-87
2023/12/28 06:08:25;;;;;;;6.65;1.80;;;-2.10;99.90;;;;;;5036364;28;20703;-86
2023/12/28 06:10:54;;;;;;;8.25;1.75;;;-2.10;99.90;;;;;;5065028;28;20221;-85
2023/12/28 06:13:22;;;;;;;9.05;2.30;;;-2.20;99.90;;;;;;5048503;28;20259;-86
2023/12/28 06:15:49;;;;;;;9.90;2.05;;;-2.10;99.90;;;;;;5048960;28;20196;-86
2023/12/28 06:18:17;;;;;;;11.35;2.75;;;-2.10;99.90;;;;;;5048655;28;20232;-86
2023/12/28 06:20:44;;;;;;;10.82;3.15;;;-2.20;99.90;;;;;;5045224;28;20190;-87
2023/12/28 06:23:12;;;;;;;11.32;2.72;;;-2.10;99.90;;;;;;5029258;28;20185;-86
2023/12/28 06:25:39;;;;;;;8.70;2.28;;;-2.10;99.90;;;;;;5037711;28;20205;-86
2023/12/28 06:28:07;;;;;;;6.72;1.90;;;-2.00;99.90;;;;;;5012289;28;20204;-86
2023/12/28 06:30:34;;;;;;;3.58;1.52;;;-2.00;99.90;;;;;;5029249;28;20185;-87
2023/12/28 06:33:02;;;;;;;8.52;2.40;;;-2.00;99.90;;;;;;5037721;28;20196;-86
2023/12/28 06:35:30;;;;;;;7.75;1.73;;;-2.10;99.90;;;;;;5053864;28;20639;-88
2023/12/28 06:37:57;;;;;;;5.03;1.10;;;-2.10;99.90;;;;;;5052612;28;20267;-86
2023/12/28 06:40:25;;;;;;;3.90;1.45;;;-2.10;99.90;;;;;;5053245;28;20260;-86
2023/12/28 06:42:53;;;;;;;5.13;1.42;;;-2.20;99.90;;;;;;5052494;28;20217;-87
2023/12/28 06:45:26;;;;;;;5.18;1.52;;;-2.20;99.90;;;;;;5053224;28;20189;-87
2023/12/28 06:47:54;;;;;;;11.80;2.00;;;-2.10;99.90;;;;;;5053249;28;20640;-86
2023/12/28 06:50:22;;;;;;;6.75;1.70;;;-2.10;99.90;;;;;;5036143;28;20638;-85
2023/12/28 06:52:49;;;;;;;10.40;1.73;;;-2.10;99.90;;;;;;5051895;28;20201;-87
2023/12/28 06:55:16;;;;;;;8.65;1.88;;;-2.10;99.90;;;;;;5051789;28;20251;-87
2023/12/28 06:57:44;;;;;;;8.13;1.67;;;-2.20;99.90;;;;;;5051741;28;20216;-87
2023/12/28 07:00:12;;;;;;;7.63;1.95;;;-2.20;99.90;;;;;;5051842;28;20282;-86
2023/12/28 07:02:40;;;;;;;4.75;1.92;;;-2.10;99.90;;;;;;5051696;28;20199;-87
2023/12/28 07:05:08;;;;;;;9.80;2.13;;;-2.10;99.90;;;;;;5035258;28;20189;-87
2023/12/28 07:07:36;;;;;;;7.72;2.20;;;-2.10;99.90;;;;;;5051439;28;20197;-86
2023/12/28 07:10:05;;;;;;;7.22;1.95;;;-2.30;99.90;;;;;;5051845;28;20204;-87
2023/12/28 07:12:32;;;;;;;9.68;2.17;;;-2.30;99.90;;;;;;5051543;28;20244;-87
2023/12/28 07:15:00;;;;;;;9.63;1.98;;;-2.30;99.90;;;;;;5051628;28;20197;-87
2023/12/28 07:17:27;;;;;;;9.70;2.78;;;-2.40;99.90;;;;;;5051574;28;20224;-85
2023/12/28 07:19:55;;;;;;;5.22;2.08;;;-2.50;99.90;;;;;;5051807;28;20260;-86
2023/12/28 07:22:23;;;;;;;7.05;2.10;;;-2.40;99.90;;;;;;5051840;28;20188;-86
2023/12/28 07:24:50;;;;;;;7.65;2.10;;;-2.50;99.90;;;;;;5051948;28;20318;-87
2023/12/28 07:27:18;;;;;;;12.13;2.10;;;-2.40;99.90;;;;;;5051742;28;20193;-86
2023/12/28 07:29:45;;;;;;;12.18;2.10;;;-2.30;99.90;;;;;;5034958;28;20185;-87
2023/12/28 07:32:14;;;;;;;8.20;2.42;;;-2.40;99.90;;;;;;5050992;28;20217;-86
2023/12/28 07:34:41;;;;;;;11.50;2.85;;;-2.40;99.90;;;;;;5036660;28;20182;-86
2023/12/28 07:37:09;;;;;;;14.13;2.90;;;-2.40;99.90;;;;;;5052278;28;20661;-86
2023/12/28 07:39:37;;;;;;;9.02;2.78;;;-2.50;99.90;;;;;;5034873;28;20239;-86
2023/12/28 07:42:04;;;;;;;7.88;1.73;;;-2.40;99.90;;;;;;5034852;28;20189;-87
2023/12/28 07:44:32;;;;;;;11.18;2.38;;;-2.40;99.90;;;;;;5035001;28;20205;-87
2023/12/28 07:47:00;;;;;;;10.15;2.30;;;-2.30;99.90;;;;;;5034391;28;20635;-86
2023/12/28 07:49:29;;;;;;;8.35;2.50;;;-2.30;99.90;;;;;;5051269;28;20551;-86
2023/12/28 07:51:56;;;;;;;8.80;2.25;;;-2.40;99.90;;;;;;5034387;28;20205;-87
2023/12/28 07:54:24;;;;;;;7.90;2.13;;;-2.50;99.90;;;;;;5034299;28;20201;-86
2023/12/28 07:56:52;;;;;;;7.22;2.25;;;-2.40;99.90;;;;;;5034403;28;20193;-86
2023/12/28 07:59:19;;;;;;;14.07;2.97;;;-2.40;99.90;;;;;;5034434;28;20292;-87
2023/12/28 08:01:47;;;;;;;8.10;2.33;;;-2.40;99.90;;;;;;5047236;28;20290;-87
2023/12/28 08:04:14;;;;;;;9.95;2.97;;;-2.30;99.90;;;;;;5030868;28;20190;-87
2023/12/28 08:06:42;;;;;;;8.15;2.33;;;-2.40;99.90;;;;;;5030885;28;20197;-86
2023/12/28 08:09:09;;;;;;;10.68;3.30;;;-2.30;99.90;;;;;;5030890;28;20194;-86
2023/12/28 08:11:37;;;;;;;7.45;2.70;;;-2.30;99.90;;;;;;5030591;28;20327;-87
2023/12/28 08:14:05;;;;;;;9.25;2.95;;;-2.30;99.90;;;;;;5014320;28;20206;-87
2023/12/28 08:16:34;;;;;;;9.20;3.17;;;-2.40;99.90;;;;;;5047581;28;20194;-87
2023/12/28 08:19:02;;;;;;;10.65;2.60;;;-2.30;99.90;;;;;;5030365;28;20679;-87
2023/12/28 08:21:30;;;;;;;10.10;2.63;;;-2.30;99.90;;;;;;5030372;28;20212;-86
2023/12/28 08:23:57;;;;;;;6.13;2.50;;;-2.40;99.90;;;;;;5030401;28;20286;-86
2023/12/28 08:26:25;;;;;;;10.25;3.20;;;-2.50;99.90;;;;;;5030449;28;20206;-86
2023/12/28 08:28:53;;;;;;;12.05;3.20;;;-2.60;99.90;;;;;;5030290;28;20193;-86
2023/12/28 08:31:21;;;;;;;12.93;3.50;;;-2.60;99.90;;;;;;5030181;28;20938;-85
2023/12/28 08:33:49;;;;;;;11.55;3.15;;;-2.60;99.90;;;;;;5030024;28;20197;-86
2023/12/28 08:36:17;;;;;;;10.85;4.43;;;-2.60;99.90;;;;;;5030150;28;20194;-86
2023/12/28 08:38:45;;;;;;;16.38;4.70;;;-2.70;99.90;;;;;;5046479;28;20206;-86
2023/12/28 08:41:24;;;;;;;12.45;4.15;;;-2.70;99.90;;;;;;5030141;28;20201;-86
2023/12/28 08:43:53;;;;;;;7.53;3.42;;;-2.70;99.90;;;;;;5030052;28;20188;-86
2023/12/28 08:46:27;;;;;;;16.10;4.32;;;-2.70;99.90;;;;;;5029715;28;20243;-86
2023/12/28 08:48:54;;;;;;;16.38;4.45;;;-2.80;99.90;;;;;;5030058;28;20607;-85
2023/12/28 08:51:22;;;;;;;15.00;4.32;;;-2.90;99.90;;;;;;5031077;28;20208;-86
2023/12/28 08:53:50;;;;;;;15.80;4.60;;;-2.80;99.90;;;;;;5046200;28;20284;-86
2023/12/28 08:56:22;;;;;;;11.93;4.80;;;-2.80;99.90;;;;;;5029666;28;20197;-86
2023/12/28 08:58:51;;;;;;;11.80;3.85;;;-2.70;99.90;;;;;;5046572;28;21004;-86
2023/12/28 09:01:22;;;;;;;18.13;5.38;;;-2.70;99.90;;;;;;5030199;28;20214;-85
2023/12/28 09:03:51;;;;;;;13.40;4.63;;;-2.70;99.90;;;;;;5030951;28;20544;-87
2023/12/28 09:06:20;;;;;;;9.18;4.07;;;-2.70;99.90;;;;;;5046071;28;20261;-85
2023/12/28 09:08:50;;;;;;;16.92;4.68;;;-2.70;99.90;;;;;;5029186;28;20206;-85
2023/12/28 09:11:18;;;;;;;8.05;3.05;;;-2.70;99.90;;;;;;5029243;28;20197;-85
2023/12/28 09:13:46;;;;;;;9.73;2.55;;;-2.70;99.90;;;;;;5040646;28;20189;-84
2023/12/28 09:16:14;;;;;;;5.43;2.55;;;-2.80;99.90;;;;;;5049790;28;20190;-84
2023/12/28 09:18:42;;;;;;;8.52;3.65;;;-2.90;99.90;;;;;;5064837;28;20217;-84
2023/12/28 09:21:11;;;;;;;6.97;2.65;;;-2.80;99.90;;;;;;5049744;28;20177;-83
2023/12/28 09:23:41;;;;;;;13.23;3.83;;;-2.80;99.90;;;;;;5048219;28;20189;-86
2023/12/28 09:26:09;;;;;;;10.57;3.15;;;-2.70;99.90;;;;;;5049692;28;20189;-85
2023/12/28 09:28:38;;;;;;;13.00;3.40;;;-2.80;99.90;;;;;;5033748;28;20190;-85
2023/12/28 09:31:07;;;;;;;9.32;3.00;;;-2.70;99.90;;;;;;5047519;28;20197;-86
2023/12/28 09:33:35;;;;;;;12.02;2.40;;;-2.70;99.90;;;;;;5033878;28;20185;-85
2023/12/28 09:36:07;;;;;;;11.27;2.70;;;-2.60;99.90;;;;;;5048318;28;20203;-85
2023/12/28 09:38:36;;;;;;;7.38;2.30;;;-2.60;99.90;;;;;;5047796;28;20236;-85
2023/12/28 09:41:14;;;;;;;10.18;2.70;;;-2.60;99.90;;;;;;5048126;28;20650;-84
2023/12/28 09:44:11;;;;;;;9.18;2.55;;;-2.70;99.90;;;;;;5040599;28;20276;-86
2023/12/28 09:46:44;;;;;;;12.25;2.00;;;-2.70;99.90;;;;;;5032830;28;20221;-84
2023/12/28 09:49:13;;;;;;;6.95;1.70;;;-2.70;99.90;;;;;;5028606;28;20197;-84
2023/12/28 09:51:41;;;;;;;5.63;1.67;;;-2.70;99.90;;;;;;5028270;28;20190;-85
2023/12/28 09:54:10;;;;;;;11.93;1.90;;;-2.60;99.90;;;;;;5044682;28;20692;-85
2023/12/28 09:56:38;;;;;;;9.65;1.83;;;-2.60;99.90;;;;;;5051055;28;20217;-85
2023/12/28 09:59:06;;;;;;;10.60;1.95;;;-2.70;99.90;;;;;;5030458;28;20291;-85
2023/12/28 10:01:35;;;;;;;7.95;1.73;;;-2.70;99.90;;;;;;5041812;28;20260;-85
2023/12/28 10:04:03;;;;;;;10.90;1.83;;;-2.60;99.90;;;;;;5026648;28;20198;-85
2023/12/28 10:06:31;;;;;;;6.68;1.48;;;-2.60;99.90;;;;;;5044961;28;20191;-85
2023/12/28 10:08:59;;;;;;;9.93;1.70;;;-2.50;99.90;;;;;;5046310;28;20223;-86
2023/12/28 10:11:28;;;;;;;7.35;1.70;;;-2.50;99.90;;;;;;5036650;28;20233;-86
2023/12/28 10:13:57;;;;;;;12.07;1.70;;;-2.40;99.90;;;;;;5047941;28;20243;-84
2023/12/28 10:16:25;;;;;;;6.68;1.38;;;-2.50;99.90;;;;;;5045038;28;20219;-85
2023/12/28 10:18:57;;;;;;;10.98;1.95;;;-2.50;99.90;;;;;;5033335;28;20205;-85
2023/12/28 10:21:25;;;;;;;8.98;2.00;;;-2.50;99.90;;;;;;5038634;28;20232;-85
2023/12/28 10:23:53;;;;;;;6.53;1.50;;;-2.50;99.90;;;;;;5044876;28;20272;-83
2023/12/28 10:26:21;;;;;;;7.03;2.05;;;-2.50;99.90;;;;;;5052356;28;20248;-84
2023/12/28 10:28:56;;;;;;;8.32;1.73;;;-2.40;99.90;;;;;;5043946;28;20280;-87
2023/12/28 10:31:25;;;;;;;11.20;1.50;;;-2.40;99.90;;;;;;5047881;28;20957;-85
2023/12/28 10:33:53;;;;;;;5.78;1.50;;;-2.40;99.90;;;;;;5049979;28;20255;-86
2023/12/28 10:36:22;;;;;;;9.65;1.92;;;-2.40;99.90;;;;;;5031788;28;20189;-86
2023/12/28 10:38:53;;;;;;;12.60;2.10;;;-2.40;99.90;;;;;;5044997;28;20671;-86
2023/12/28 10:41:22;;;;;;;11.77;1.73;;;-2.40;99.90;;;;;;5038283;28;20186;-85
2023/12/28 10:44:03;;;;;;;8.20;1.83;;;-2.40;99.90;;;;;;5042992;28;20205;-85
2023/12/28 10:46:43;;;;;;;11.38;1.80;;;-2.40;99.90;;;;;;5038147;28;20193;-85
2023/12/28 10:49:12;;;;;;;11.10;2.00;;;-2.40;99.90;;;;;;5034382;28;20539;-85
2023/12/28 10:51:45;;;;;;;7.20;1.75;;;-2.40;99.90;;;;;;5061899;28;20204;-85
2023/12/28 10:54:37;;;;;;;11.45;2.00;;;-2.40;99.90;;;;;;5039957;28;20192;-84
2023/12/28 10:57:27;;;;;;;6.03;1.92;;;-2.30;99.90;;;;;;5027272;28;20548;-85
2023/12/28 11:00:22;;;;;;;5.90;2.30;;;-2.30;99.90;;;;;;5027148;28;20214;-83
2023/12/28 11:02:56;;;;;;;7.72;2.67;;;-2.30;99.90;;;;;;5060501;28;20174;-84
2023/12/28 11:05:27;;;;;;;7.40;2.40;;;-2.30;99.90;;;;;;5038168;28;20190;-84
2023/12/28 11:07:58;;;;;;;7.65;1.88;;;-2.30;99.90;;;;;;5038256;28;20205;-83
2023/12/28 11:10:26;;;;;;;8.40;2.40;;;-2.30;99.90;;;;;;5027451;28;20283;-85
2023/12/28 11:12:54;;;;;;;6.53;2.28;;;-2.30;99.90;;;;;;5011244;28;20778;-85
2023/12/28 11:15:23;;;;;;;8.07;2.28;;;-2.20;99.90;;;;;;5027526;28;20196;-85
2023/12/28 11:17:52;;;;;;;13.65;2.70;;;-2.20;99.90;;;;;;5027153;28;20194;-83
2023/12/28 11:20:21;;;;;;;10.60;2.58;;;-2.20;99.90;;;;;;5031278;28;20301;-84
2023/12/28 11:22:50;;;;;;;11.32;3.13;;;-2.20;99.90;;;;;;5014660;28;20236;-84
2023/12/28 11:25:19;;;;;;;8.30;2.50;;;-2.20;99.90;;;;;;5030781;28;20233;-86
2023/12/28 11:27:46;;;;;;;9.20;2.60;;;-2.20;99.90;;;;;;5031006;28;20190;-85
2023/12/28 11:30:14;;;;;;;11.77;3.15;;;-2.20;99.90;;;;;;5031094;28;20182;-85
2023/12/28 11:32:43;;;;;;;12.70;2.95;;;-2.10;99.90;;;;;;5031298;28;20655;-87
2023/12/28 11:35:14;;;;;;;6.53;2.28;;;-2.10;99.90;;;;;;5050714;28;20239;-85
2023/12/28 11:37:51;;;;;;;12.55;3.38;;;-2.10;99.90;;;;;;5025631;28;20202;-87
2023/12/28 11:40:19;;;;;;;7.65;2.83;;;-2.20;99.90;;;;;;5049003;28;20209;-85
2023/12/28 11:42:55;;;;;;;11.95;3.80;;;-2.10;99.90;;;;;;5056810;28;20264;-86
2023/12/28 11:45:30;;;;;;;15.95;5.03;;;-2.20;99.90;;;;;;5038523;28;20188;-85
2023/12/28 11:48:01;;;;;;;18.50;5.60;;;-2.20;99.90;;;;;;5026984;28;20214;-86
2023/12/28 11:50:35;;;;;;;16.05;5.18;;;-2.30;99.90;;;;;;5049671;28;20189;-84
2023/12/28 11:53:05;;;;;;;12.45;4.60;;;-2.20;99.90;;;;;;5044936;28;20193;-87
2023/12/28 11:55:33;;;;;;;12.68;4.03;;;-2.20;99.90;;;;;;5037160;28;20565;-84
2023/12/28 11:58:00;;;;;;;12.95;4.55;;;-2.20;99.90;;;;;;5047288;28;20189;-86
2023/12/28 12:00:28;;;;;;;10.43;4.25;;;-2.10;99.90;;;;;;5039366;28;20205;-87
2023/12/28 12:02:57;;;;;;;13.85;3.88;;;-2.10;99.90;;;;;;5037301;28;20178;-84
2023/12/28 12:05:25;;;;;;;14.75;4.47;;;-2.20;99.90;;;;;;5030035;28;20672;-85
2023/12/28 12:07:53;;;;;;;15.63;4.75;;;-2.20;99.90;;;;;;5041615;28;20217;-85
2023/12/28 12:10:21;;;;;;;13.75;4.28;;;-2.20;99.90;;;;;;5031653;28;20233;-84
2023/12/28 12:12:53;;;;;;;14.68;4.05;;;-2.20;99.90;;;;;;5029757;28;20280;-85
2023/12/28 12:15:21;;;;;;;26.05;12.35;;;-2.10;99.90;;;;;;5044879;28;20240;-85
2023/12/28 12:17:49;;;;;;;18.77;8.88;;;-2.10;99.90;;;;;;5062615;28;20185;-83
2023/12/28 12:20:17;;;;;;;18.80;13.65;;;-2.20;99.90;;;;;;5042701;28;20209;-84
2023/12/28 12:22:45;;;;;;;23.98;17.17;;;-2.10;99.90;;;;;;5038976;28;21024;-85
2023/12/28 12:25:13;;;;;;;37.08;24.35;;;-2.10;99.90;;;;;;5039583;28;20679;-85
2023/12/28 12:27:40;;;;;;;31.13;20.20;;;-2.10;99.90;;;;;;5049291;28;20197;-85
2023/12/28 12:30:09;;;;;;;15.43;7.80;;;-2.10;99.90;;;;;;5026188;28;20232;-84
2023/12/28 12:32:42;;;;;;;14.80;5.97;;;-2.10;99.90;;;;;;5043007;28;20208;-84
2023/12/28 12:35:11;;;;;;;15.02;8.32;;;-2.00;99.90;;;;;;5050821;28;20180;-86
2023/12/28 12:37:40;;;;;;;15.38;10.18;;;-2.00;99.90;;;;;;5032829;28;20871;-84
2023/12/28 12:40:08;;;;;;;17.63;10.18;;;-2.00;99.90;;;;;;5045821;28;20767;-85
2023/12/28 12:42:39;;;;;;;18.67;9.95;;;-2.00;99.90;;;;;;5049368;28;20652;-84
2023/12/28 12:45:08;;;;;;;12.95;5.43;;;-2.00;99.90;;;;;;5058780;28;20193;-86
2023/12/28 12:47:35;;;;;;;7.22;4.25;;;-2.00;99.90;;;;;;5027631;28;20213;-86
2023/12/28 12:50:04;;;;;;;13.27;10.07;;;-2.00;99.90;;;;;;5048955;28;20304;-85